OCN6HP EDDF-LGSR
Flight info
| Callsign | OCN6HP |
|---|---|
| Flight time | N/A |
| Altitude | 37000 |
| Route | CINDY2D CINDY Z74 LAMPU DCT NOMBO Y161 MAH DCT VAVOR DCT RADIZ DCT AKIKA DCT MAVAR DCT BITLA UN132 KEA UL607 NETIS B34 PEXAN |
| Aircraft | A320/M-SDE2E3FGIJ1LORWXYZ/HB1 |
Departure
| Time | 2026-04-18 07:51 |
|---|---|
| Airport | Frankfurt Main Airport (EDDF) |
Arrival
| Time | N/A |
|---|---|
| Airport | Santorini International Airport (LGSR) |
| Time | Latitude | Longitude | Altitude | Speed | Heading |
|---|---|---|---|---|---|
| 2026-04-18 07:31 | 50.04752 | 8.56884 | 365 ft | 0 kts | 294° |
| 2026-04-18 07:31 | 50.04752 | 8.56883 | 365 ft | 0 kts | 294° |
| 2026-04-18 07:40 | 50.04752 | 8.56884 | 356 ft | 1 kts | 294° |
| 2026-04-18 07:40 | 50.04747 | 8.56903 | 363 ft | 3 kts | 293° |
| 2026-04-18 07:41 | 50.04739 | 8.56932 | 363 ft | 3 kts | 295° |
| 2026-04-18 07:41 | 50.04731 | 8.56959 | 362 ft | 3 kts | 276° |
| 2026-04-18 07:41 | 50.04733 | 8.56984 | 362 ft | 3 kts | 227° |
| 2026-04-18 07:41 | 50.04746 | 8.57001 | 365 ft | 2 kts | 205° |
| 2026-04-18 07:42 | 50.04758 | 8.57009 | 365 ft | 3 kts | 204° |
| 2026-04-18 07:42 | 50.04776 | 8.57022 | 364 ft | 3 kts | 205° |
| 2026-04-18 07:42 | 50.04793 | 8.57034 | 359 ft | 2 kts | 205° |
| 2026-04-18 07:42 | 50.04795 | 8.57035 | 358 ft | 0 kts | 205° |
| 2026-04-18 07:44 | 50.04794 | 8.57035 | 359 ft | 2 kts | 205° |
| 2026-04-18 07:44 | 50.04744 | 8.56998 | 360 ft | 10 kts | 205° |
| 2026-04-18 07:45 | 50.04685 | 8.56956 | 362 ft | 9 kts | 205° |
| 2026-04-18 07:45 | 50.04603 | 8.56910 | 356 ft | 16 kts | 193° |
| 2026-04-18 07:45 | 50.04510 | 8.56876 | 359 ft | 12 kts | 193° |
| 2026-04-18 07:45 | 50.04448 | 8.56810 | 359 ft | 11 kts | 243° |
| 2026-04-18 07:46 | 50.04419 | 8.56694 | 359 ft | 14 kts | 249° |
| 2026-04-18 07:46 | 50.04379 | 8.56526 | 363 ft | 19 kts | 250° |
| 2026-04-18 07:46 | 50.04329 | 8.56312 | 355 ft | 22 kts | 250° |
| 2026-04-18 07:46 | 50.04271 | 8.56078 | 357 ft | 24 kts | 249° |
| 2026-04-18 07:47 | 50.04212 | 8.55823 | 354 ft | 26 kts | 250° |
| 2026-04-18 07:47 | 50.04145 | 8.55550 | 355 ft | 28 kts | 249° |
| 2026-04-18 07:47 | 50.04078 | 8.55265 | 360 ft | 28 kts | 250° |
| 2026-04-18 07:47 | 50.04009 | 8.54975 | 361 ft | 28 kts | 250° |
| 2026-04-18 07:48 | 50.03948 | 8.54723 | 356 ft | 26 kts | 250° |
| 2026-04-18 07:48 | 50.03884 | 8.54450 | 353 ft | 25 kts | 250° |
| 2026-04-18 07:48 | 50.03813 | 8.54264 | 348 ft | 21 kts | 242° |
| 2026-04-18 07:48 | 50.03758 | 8.54047 | 347 ft | 23 kts | 250° |
| 2026-04-18 07:49 | 50.03700 | 8.53808 | 346 ft | 25 kts | 250° |
| 2026-04-18 07:49 | 50.03636 | 8.53549 | 340 ft | 27 kts | 248° |
| 2026-04-18 07:49 | 50.03568 | 8.53271 | 338 ft | 28 kts | 250° |
| 2026-04-18 07:49 | 50.03498 | 8.52975 | 335 ft | 30 kts | 249° |
| 2026-04-18 07:50 | 50.03432 | 8.52728 | 331 ft | 23 kts | 249° |
| 2026-04-18 07:50 | 50.03385 | 8.52592 | 334 ft | 8 kts | 195° |
| 2026-04-18 07:50 | 50.03311 | 8.52595 | 335 ft | 24 kts | 179° |
| 2026-04-18 07:50 | 50.02876 | 8.52599 | 335 ft | 97 kts | 180° |
| 2026-04-18 07:51 | 50.02002 | 8.52608 | 334 ft | 151 kts | 180° |
| 2026-04-18 07:51 | 50.00833 | 8.52612 | 623 ft | 173 kts | 179° |
| 2026-04-18 07:51 | 49.99625 | 8.52606 | 1327 ft | 174 kts | 180° |
| 2026-04-18 07:51 | 49.98390 | 8.52607 | 1916 ft | 186 kts | 180° |
| 2026-04-18 07:52 | 49.97039 | 8.52880 | 2216 ft | 209 kts | 155° |
| 2026-04-18 07:52 | 49.95918 | 8.54445 | 2600 ft | 230 kts | 120° |
| 2026-04-18 07:52 | 49.95169 | 8.56667 | 3455 ft | 232 kts | 118° |
| 2026-04-18 07:52 | 49.94416 | 8.58888 | 4333 ft | 234 kts | 115° |
| 2026-04-18 07:53 | 49.94010 | 8.61376 | 5027 ft | 249 kts | 96° |
| 2026-04-18 07:53 | 49.93879 | 8.64184 | 5527 ft | 269 kts | 95° |
| 2026-04-18 07:53 | 49.93654 | 8.67097 | 6371 ft | 274 kts | 106° |
| 2026-04-18 07:53 | 49.92885 | 8.69807 | 7197 ft | 276 kts | 126° |
| 2026-04-18 07:54 | 49.91568 | 8.71967 | 8030 ft | 278 kts | 145° |
| 2026-04-18 07:54 | 49.89983 | 8.73703 | 8869 ft | 281 kts | 146° |
| 2026-04-18 07:54 | 49.88511 | 8.75737 | 9688 ft | 287 kts | 131° |
| 2026-04-18 07:54 | 49.87387 | 8.78327 | 10435 ft | 295 kts | 120° |
| 2026-04-18 07:55 | 49.86354 | 8.81215 | 10710 ft | 318 kts | 120° |
| 2026-04-18 07:55 | 49.85244 | 8.84297 | 11107 ft | 334 kts | 120° |
| 2026-04-18 07:55 | 49.84075 | 8.87527 | 11408 ft | 353 kts | 120° |
| 2026-04-18 07:55 | 49.82855 | 8.90896 | 11958 ft | 363 kts | 120° |
| 2026-04-18 07:56 | 49.81611 | 8.94333 | 12592 ft | 369 kts | 120° |
| 2026-04-18 07:56 | 49.80347 | 8.97819 | 13234 ft | 375 kts | 120° |
| 2026-04-18 07:56 | 49.79055 | 9.01371 | 13874 ft | 381 kts | 120° |
| 2026-04-18 07:56 | 49.77746 | 9.04958 | 14472 ft | 386 kts | 121° |
| 2026-04-18 07:57 | 49.76485 | 9.08650 | 15091 ft | 390 kts | 113° |
| 2026-04-18 07:57 | 49.75645 | 9.12658 | 15700 ft | 394 kts | 103° |
| 2026-04-18 07:57 | 49.74851 | 9.16724 | 16284 ft | 397 kts | 112° |
| 2026-04-18 07:57 | 49.73553 | 9.20509 | 16895 ft | 400 kts | 125° |
| 2026-04-18 07:58 | 49.69942 | 9.27135 | 18056 ft | 407 kts | 133° |
| 2026-04-18 07:58 | 49.68070 | 9.30433 | 18603 ft | 411 kts | 132° |
| 2026-04-18 07:58 | 49.66183 | 9.33770 | 19092 ft | 414 kts | 132° |
| 2026-04-18 07:59 | 49.64284 | 9.37124 | 19587 ft | 417 kts | 132° |
| 2026-04-18 07:59 | 49.62307 | 9.40407 | 20072 ft | 418 kts | 139° |
| 2026-04-18 07:59 | 49.60003 | 9.43140 | 20539 ft | 420 kts | 150° |
| 2026-04-18 07:59 | 49.57479 | 9.45488 | 20839 ft | 425 kts | 151° |
| 2026-04-18 08:00 | 49.54934 | 9.47811 | 21436 ft | 425 kts | 152° |
| 2026-04-18 08:00 | 49.52381 | 9.50124 | 21934 ft | 427 kts | 152° |
| 2026-04-18 08:00 | 49.49849 | 9.52418 | 22396 ft | 429 kts | 152° |
| 2026-04-18 08:00 | 49.47266 | 9.54761 | 22865 ft | 432 kts | 152° |
| 2026-04-18 08:01 | 49.44669 | 9.57120 | 23310 ft | 435 kts | 152° |
| 2026-04-18 08:01 | 49.42059 | 9.59493 | 23753 ft | 438 kts | 152° |
| 2026-04-18 08:01 | 49.39429 | 9.61880 | 24127 ft | 440 kts | 152° |
| 2026-04-18 08:01 | 49.36790 | 9.64274 | 24491 ft | 442 kts | 152° |
| 2026-04-18 08:02 | 49.34197 | 9.66847 | 24845 ft | 446 kts | 144° |
| 2026-04-18 08:02 | 49.31884 | 9.70048 | 25177 ft | 451 kts | 136° |
| 2026-04-18 08:02 | 49.29668 | 9.73459 | 25524 ft | 453 kts | 136° |
| 2026-04-18 08:02 | 49.27436 | 9.76881 | 25880 ft | 455 kts | 137° |
| 2026-04-18 08:03 | 49.25190 | 9.80310 | 26236 ft | 457 kts | 137° |
| 2026-04-18 08:03 | 49.22930 | 9.83746 | 26589 ft | 459 kts | 137° |
| 2026-04-18 08:03 | 49.20656 | 9.87192 | 26933 ft | 461 kts | 137° |
| 2026-04-18 08:03 | 49.18371 | 9.90643 | 27272 ft | 463 kts | 137° |
| 2026-04-18 08:04 | 49.16075 | 9.94112 | 27593 ft | 465 kts | 137° |
| 2026-04-18 08:04 | 49.13773 | 9.97591 | 27917 ft | 467 kts | 137° |
| 2026-04-18 08:04 | 49.11461 | 10.01089 | 28223 ft | 469 kts | 137° |
| 2026-04-18 08:04 | 49.09139 | 10.04601 | 28524 ft | 471 kts | 137° |
| 2026-04-18 08:05 | 49.06810 | 10.08118 | 28815 ft | 472 kts | 137° |
| 2026-04-18 08:05 | 49.04453 | 10.11623 | 29131 ft | 474 kts | 139° |
| 2026-04-18 08:05 | 49.02057 | 10.15071 | 29425 ft | 475 kts | 139° |
| 2026-04-18 08:05 | 48.99620 | 10.18492 | 29711 ft | 477 kts | 140° |
| 2026-04-18 08:06 | 48.97163 | 10.21900 | 30022 ft | 477 kts | 140° |
| 2026-04-18 08:06 | 48.94719 | 10.25290 | 30508 ft | 474 kts | 140° |
| 2026-04-18 08:06 | 48.92294 | 10.28678 | 30887 ft | 473 kts | 140° |
| 2026-04-18 08:06 | 48.89884 | 10.32066 | 31248 ft | 472 kts | 140° |
| 2026-04-18 08:07 | 48.87479 | 10.35456 | 31593 ft | 471 kts | 140° |
| 2026-04-18 08:07 | 48.85081 | 10.38836 | 31944 ft | 470 kts | 140° |
| 2026-04-18 08:07 | 48.82692 | 10.42219 | 32286 ft | 469 kts | 139° |
| 2026-04-18 08:07 | 48.80368 | 10.45686 | 32704 ft | 467 kts | 137° |
| 2026-04-18 08:08 | 48.78132 | 10.49231 | 33200 ft | 463 kts | 135° |
| 2026-04-18 08:08 | 48.76682 | 10.51601 | 33477 ft | 462 kts | 135° |
| 2026-04-18 08:08 | 48.74518 | 10.55189 | 33853 ft | 461 kts | 134° |
| 2026-04-18 08:08 | 48.72358 | 10.58766 | 34217 ft | 460 kts | 134° |
| 2026-04-18 08:09 | 48.70191 | 10.62310 | 34525 ft | 459 kts | 135° |
| 2026-04-18 08:09 | 48.68002 | 10.65829 | 34822 ft | 458 kts | 135° |
| 2026-04-18 08:09 | 48.65806 | 10.69316 | 35088 ft | 458 kts | 135° |
| 2026-04-18 08:09 | 48.63604 | 10.72789 | 35346 ft | 457 kts | 136° |
| 2026-04-18 08:10 | 48.61399 | 10.76250 | 35601 ft | 457 kts | 136° |
| 2026-04-18 08:10 | 48.59197 | 10.79706 | 35845 ft | 457 kts | 135° |
| 2026-04-18 08:10 | 48.57000 | 10.83179 | 36081 ft | 457 kts | 135° |
| 2026-04-18 08:10 | 48.54816 | 10.86665 | 36310 ft | 457 kts | 135° |
| 2026-04-18 08:11 | 48.52643 | 10.90154 | 36537 ft | 457 kts | 134° |
| 2026-04-18 08:11 | 48.50473 | 10.93644 | 36752 ft | 457 kts | 134° |
| 2026-04-18 08:11 | 48.48292 | 10.97138 | 36972 ft | 456 kts | 135° |
| 2026-04-18 08:11 | 48.46102 | 11.00598 | 37168 ft | 457 kts | 135° |
| 2026-04-18 08:12 | 48.43900 | 11.04036 | 37219 ft | 455 kts | 135° |
| 2026-04-18 08:12 | 48.39499 | 11.10840 | 37218 ft | 453 kts | 135° |
| 2026-04-18 08:13 | 48.35096 | 11.17624 | 37215 ft | 453 kts | 135° |
| 2026-04-18 08:13 | 48.30705 | 11.24418 | 37221 ft | 453 kts | 135° |
| 2026-04-18 08:14 | 48.26436 | 11.31384 | 37221 ft | 454 kts | 127° |
| 2026-04-18 08:14 | 48.23151 | 11.39486 | 37218 ft | 457 kts | 120° |
| 2026-04-18 08:15 | 48.19936 | 11.47817 | 37218 ft | 466 kts | 120° |
| 2026-04-18 08:15 | 48.16643 | 11.56287 | 37215 ft | 473 kts | 120° |
| 2026-04-18 08:16 | 48.13326 | 11.64818 | 37215 ft | 474 kts | 120° |
| 2026-04-18 08:16 | 48.10004 | 11.73352 | 37213 ft | 475 kts | 120° |
| 2026-04-18 08:17 | 48.06086 | 11.81168 | 37216 ft | 474 kts | 132° |
| 2026-04-18 08:17 | 48.01704 | 11.88545 | 37212 ft | 475 kts | 132° |
| 2026-04-18 08:18 | 47.97314 | 11.95910 | 37223 ft | 475 kts | 131° |
| 2026-04-18 08:18 | 47.92922 | 12.03261 | 37222 ft | 475 kts | 132° |
| 2026-04-18 08:19 | 47.88518 | 12.10599 | 37218 ft | 475 kts | 132° |
| 2026-04-18 08:19 | 47.84129 | 12.17942 | 37218 ft | 475 kts | 131° |
| 2026-04-18 08:20 | 47.79754 | 12.25305 | 37219 ft | 475 kts | 131° |
| 2026-04-18 08:20 | 47.75374 | 12.32661 | 37215 ft | 475 kts | 131° |
| 2026-04-18 08:21 | 47.70986 | 12.39987 | 37215 ft | 475 kts | 131° |
| 2026-04-18 08:21 | 47.66586 | 12.47293 | 37217 ft | 475 kts | 132° |
| 2026-04-18 08:22 | 47.62178 | 12.54579 | 37218 ft | 475 kts | 132° |
| 2026-04-18 08:22 | 47.57700 | 12.61771 | 37220 ft | 475 kts | 133° |
| 2026-04-18 08:23 | 47.53168 | 12.68882 | 37222 ft | 475 kts | 133° |
| 2026-04-18 08:23 | 47.48633 | 12.76000 | 37216 ft | 475 kts | 133° |
| 2026-04-18 08:24 | 47.44111 | 12.83119 | 37214 ft | 475 kts | 133° |
| 2026-04-18 08:24 | 47.39582 | 12.90220 | 37219 ft | 475 kts | 133° |
| 2026-04-18 08:25 | 47.35043 | 12.97328 | 37234 ft | 476 kts | 133° |
| 2026-04-18 08:25 | 47.30500 | 13.04428 | 37229 ft | 476 kts | 133° |
| 2026-04-18 08:26 | 47.25949 | 13.11509 | 37227 ft | 476 kts | 133° |
| 2026-04-18 08:26 | 47.21399 | 13.18595 | 37226 ft | 476 kts | 132° |
| 2026-04-18 08:27 | 47.16833 | 13.25666 | 37228 ft | 477 kts | 132° |
| 2026-04-18 08:27 | 47.12259 | 13.32716 | 37239 ft | 477 kts | 132° |
| 2026-04-18 08:28 | 47.07675 | 13.39765 | 37230 ft | 477 kts | 132° |
| 2026-04-18 08:28 | 47.03091 | 13.46808 | 37233 ft | 477 kts | 132° |
| 2026-04-18 08:29 | 46.98539 | 13.53801 | 37210 ft | 477 kts | 132° |
| 2026-04-18 08:29 | 46.93916 | 13.60856 | 37220 ft | 477 kts | 132° |
| 2026-04-18 08:30 | 46.89320 | 13.67854 | 37231 ft | 477 kts | 131° |
| 2026-04-18 08:30 | 46.84721 | 13.74851 | 37229 ft | 477 kts | 131° |
| 2026-04-18 08:31 | 46.80126 | 13.81826 | 37233 ft | 477 kts | 132° |
| 2026-04-18 08:31 | 46.75523 | 13.88798 | 37220 ft | 477 kts | 131° |
| 2026-04-18 08:32 | 46.70938 | 13.95696 | 37226 ft | 477 kts | 131° |
| 2026-04-18 08:32 | 46.66318 | 14.02644 | 37213 ft | 478 kts | 131° |
| 2026-04-18 08:33 | 46.61690 | 14.09584 | 37211 ft | 478 kts | 131° |
| 2026-04-18 08:33 | 46.57053 | 14.16527 | 37222 ft | 479 kts | 131° |
| 2026-04-18 08:34 | 46.52415 | 14.23456 | 37224 ft | 478 kts | 131° |
| 2026-04-18 08:34 | 46.47765 | 14.30379 | 37214 ft | 479 kts | 131° |
| 2026-04-18 08:35 | 46.43106 | 14.37300 | 37207 ft | 480 kts | 131° |
| 2026-04-18 08:35 | 46.38438 | 14.44201 | 37208 ft | 480 kts | 131° |
| 2026-04-18 08:36 | 46.33765 | 14.51088 | 37209 ft | 479 kts | 131° |
| 2026-04-18 08:36 | 46.29089 | 14.57988 | 37231 ft | 480 kts | 131° |
| 2026-04-18 08:37 | 46.24400 | 14.64885 | 37189 ft | 482 kts | 131° |
| 2026-04-18 08:37 | 46.19697 | 14.71785 | 37190 ft | 482 kts | 131° |
| 2026-04-18 08:38 | 46.14980 | 14.78686 | 37194 ft | 483 kts | 131° |